Time;durP1;ratioP1;P1;durP2;ratioP2;P2;SDS_P1;SDS_P2;PMS_P1;PMS_P2;Temp;Humidity;BMP_temperature;BMP_pressure;BME280_temperature;BME280_humidity;BME280_pressure;Samples;Min_cycle;Max_cycle;Signal;HPM_P1;HPM_P2
2022/02/14 00:01:32;;;;;;;6.43;3.45;;;5.80;99.90;;;;;;4975154;28;20031;-77
2022/02/14 00:03:58;;;;;;;4.47;3.50;;;5.90;99.90;;;;;;4973011;28;20031;-78
2022/02/14 00:06:24;;;;;;;4.85;3.58;;;5.90;99.90;;;;;;4969599;28;20046;-78
2022/02/14 00:08:49;;;;;;;10.75;4.22;;;5.90;99.90;;;;;;4972447;28;20035;-78
2022/02/14 00:11:15;;;;;;;4.40;3.00;;;5.90;99.90;;;;;;4977218;28;20019;-78
2022/02/14 00:13:40;;;;;;;8.57;4.78;;;6.00;99.90;;;;;;4971523;28;20521;-79
2022/02/14 00:16:06;;;;;;;4.13;3.30;;;6.00;99.80;;;;;;4975765;28;20438;-76
2022/02/14 00:18:32;;;;;;;5.00;3.70;;;6.10;99.70;;;;;;4975778;28;20097;-79
2022/02/14 00:20:57;;;;;;;3.92;3.17;;;6.10;99.40;;;;;;4993865;28;20035;-78
2022/02/14 00:23:22;;;;;;;5.07;3.65;;;6.10;99.20;;;;;;4975466;28;20019;-77
2022/02/14 00:25:48;;;;;;;6.53;3.80;;;6.10;99.20;;;;;;4974812;28;20023;-76
2022/02/14 00:28:13;;;;;;;6.20;3.17;;;6.20;99.10;;;;;;4994937;28;20021;-77
2022/02/14 00:30:39;;;;;;;4.65;4.10;;;6.30;98.90;;;;;;4973557;28;20023;-77
2022/02/14 00:33:05;;;;;;;3.55;3.22;;;6.20;99.00;;;;;;4974780;28;20043;-78
2022/02/14 00:35:30;;;;;;;3.78;2.75;;;6.30;98.70;;;;;;4973374;28;20086;-78
2022/02/14 00:37:56;;;;;;;7.32;3.90;;;6.30;98.50;;;;;;4975877;28;20479;-80
2022/02/14 00:40:21;;;;;;;4.07;2.90;;;6.20;98.60;;;;;;4965967;28;20027;-79
2022/02/14 00:42:47;;;;;;;6.05;3.00;;;6.10;98.80;;;;;;4971177;28;20023;-79
2022/02/14 00:45:13;;;;;;;6.55;3.47;;;6.10;98.70;;;;;;4988188;28;20025;-78
2022/02/14 00:47:38;;;;;;;7.20;4.18;;;6.20;98.50;;;;;;4985107;28;20046;-77
2022/02/14 00:50:04;;;;;;;3.58;3.00;;;6.20;98.50;;;;;;4970293;28;20030;-80
2022/02/14 00:52:30;;;;;;;4.85;3.40;;;6.20;98.30;;;;;;4969723;28;20023;-78
2022/02/14 00:54:59;;;;;;;6.05;3.90;;;6.20;98.50;;;;;;4985608;28;20669;-78
2022/02/14 00:57:25;;;;;;;4.40;3.70;;;6.20;98.60;;;;;;4988752;28;20170;-77
2022/02/14 00:59:51;;;;;;;4.13;3.70;;;6.10;98.40;;;;;;4972209;28;20055;-78
2022/02/14 01:02:17;;;;;;;4.60;3.15;;;6.10;98.70;;;;;;4968101;28;20555;-76
2022/02/14 01:04:42;;;;;;;6.95;3.75;;;6.20;98.20;;;;;;4988916;28;20023;-79
2022/02/14 01:07:08;;;;;;;3.53;3.03;;;6.20;98.40;;;;;;4979431;28;20066;-77
2022/02/14 01:09:34;;;;;;;4.80;3.35;;;6.40;97.90;;;;;;4985044;28;20023;-77
2022/02/14 01:11:59;;;;;;;4.93;3.20;;;6.30;98.00;;;;;;4969523;28;20069;-77
2022/02/14 01:14:25;;;;;;;4.60;2.90;;;6.30;97.90;;;;;;4988765;28;20051;-76
2022/02/14 01:16:50;;;;;;;7.15;3.03;;;6.30;98.10;;;;;;4974527;28;20027;-77
2022/02/14 01:19:16;;;;;;;6.40;3.53;;;6.40;97.80;;;;;;4973530;28;20038;-78
2022/02/14 01:21:42;;;;;;;4.47;2.80;;;6.30;97.80;;;;;;4965956;28;20359;-78
2022/02/14 01:24:08;;;;;;;5.05;3.97;;;6.30;97.80;;;;;;4972801;28;20052;-76
2022/02/14 01:29:18;;;;;;;4.35;3.25;;;6.20;98.10;;;;;;5175632;23;20035;-78
2022/02/14 01:31:44;;;;;;;3.88;3.35;;;6.20;97.80;;;;;;4961112;28;20397;-77
2022/02/14 01:34:10;;;;;;;4.50;2.78;;;6.20;98.00;;;;;;4969311;28;20047;-78
2022/02/14 01:36:35;;;;;;;5.00;3.05;;;6.20;97.80;;;;;;4966907;28;20503;-77
2022/02/14 01:39:01;;;;;;;4.53;2.67;;;6.20;97.90;;;;;;4981722;28;20110;-77
2022/02/14 01:41:27;;;;;;;5.38;4.05;;;6.10;97.90;;;;;;4973670;28;20041;-77
2022/02/14 01:43:52;;;;;;;3.05;2.60;;;6.20;97.90;;;;;;4974653;28;20019;-77
2022/02/14 01:46:18;;;;;;;3.90;2.88;;;6.30;97.50;;;;;;4975358;28;20031;-78
2022/02/14 01:48:43;;;;;;;5.85;3.22;;;6.30;97.50;;;;;;4975937;28;20035;-77
2022/02/14 01:51:09;;;;;;;4.97;3.60;;;6.30;97.20;;;;;;4979399;28;20033;-77
2022/02/14 01:53:36;;;;;;;5.78;3.03;;;6.50;96.60;;;;;;4975814;28;20019;-77
2022/02/14 01:56:02;;;;;;;5.13;3.42;;;6.80;96.80;;;;;;4974524;28;20077;-76
2022/02/14 01:58:28;;;;;;;8.55;3.22;;;6.70;96.60;;;;;;4993315;28;20026;-78
2022/02/14 02:00:53;;;;;;;5.57;4.20;;;6.50;96.90;;;;;;4989626;28;20038;-76
2022/02/14 02:03:19;;;;;;;3.97;3.25;;;6.60;97.40;;;;;;4990146;28;20026;-79
2022/02/14 02:05:45;;;;;;;6.13;4.25;;;6.70;95.80;;;;;;4989646;28;20041;-77
2022/02/14 02:08:14;;;;;;;4.97;3.65;;;6.60;96.40;;;;;;4964842;28;20101;-77
2022/02/14 02:10:41;;;;;;;5.85;3.55;;;6.70;96.10;;;;;;4968631;28;20031;-77
2022/02/14 02:13:06;;;;;;;4.13;3.15;;;6.60;96.00;;;;;;4970407;28;20034;-77
2022/02/14 02:15:33;;;;;;;5.53;3.20;;;6.60;96.10;;;;;;4990454;28;20034;-76
2022/02/14 02:18:00;;;;;;;6.60;2.95;;;6.50;96.30;;;;;;4976451;28;20062;-78
2022/02/14 02:20:25;;;;;;;7.30;3.33;;;6.70;95.80;;;;;;4974427;28;20022;-78
2022/02/14 02:22:52;;;;;;;5.65;3.22;;;6.70;95.40;;;;;;4973972;28;20483;-77
2022/02/14 02:25:19;;;;;;;4.55;3.45;;;6.70;95.50;;;;;;4989378;28;20153;-76
2022/02/14 02:27:45;;;;;;;6.85;3.28;;;6.50;95.90;;;;;;4988173;28;20040;-77
2022/02/14 02:30:22;;;;;;;5.65;3.70;;;6.40;96.00;;;;;;4973352;28;20055;-76
2022/02/14 02:32:48;;;;;;;6.35;3.90;;;6.30;96.20;;;;;;4972980;28;20046;-76
2022/02/14 02:35:14;;;;;;;3.95;2.72;;;6.30;96.40;;;;;;4972282;28;20035;-77
2022/02/14 02:37:40;;;;;;;4.45;3.38;;;6.40;95.80;;;;;;4972628;28;20023;-77
2022/02/14 02:40:07;;;;;;;5.90;3.70;;;6.30;96.20;;;;;;4988686;28;20082;-77
2022/02/14 02:42:32;;;;;;;7.18;3.42;;;6.30;96.20;;;;;;4970125;28;20034;-77
2022/02/14 02:44:58;;;;;;;4.93;3.20;;;6.30;96.10;;;;;;4975639;28;20027;-77
2022/02/14 02:47:26;;;;;;;4.63;3.13;;;6.20;95.80;;;;;;4990508;28;20486;-77
2022/02/14 02:49:52;;;;;;;6.65;3.55;;;6.20;96.00;;;;;;4973703;28;20018;-77
2022/02/14 02:52:19;;;;;;;4.35;3.03;;;6.20;96.00;;;;;;4975124;28;20038;-77
2022/02/14 02:54:45;;;;;;;7.95;3.40;;;6.20;96.20;;;;;;4989120;28;20034;-77
2022/02/14 02:57:11;;;;;;;4.60;2.92;;;6.20;95.70;;;;;;4974359;28;20050;-78
2022/02/14 02:59:37;;;;;;;6.57;3.40;;;6.20;95.60;;;;;;4973023;28;20022;-78
2022/02/14 03:02:05;;;;;;;3.60;2.67;;;6.30;95.10;;;;;;4972669;28;20019;-76
2022/02/14 03:04:30;;;;;;;5.90;3.53;;;6.60;94.20;;;;;;4976332;28;20019;-78
2022/02/14 03:06:56;;;;;;;3.92;2.97;;;6.90;93.90;;;;;;4990184;28;20087;-76
2022/02/14 03:09:22;;;;;;;6.20;3.67;;;6.70;94.20;;;;;;4990720;28;20082;-77
2022/02/14 03:11:47;;;;;;;4.85;3.10;;;6.70;94.00;;;;;;4991588;28;20045;-76
2022/02/14 03:14:14;;;;;;;6.10;4.20;;;6.80;93.70;;;;;;4991627;28;20066;-77
2022/02/14 03:16:40;;;;;;;5.53;3.33;;;6.80;93.40;;;;;;4995770;28;20083;-77
2022/02/14 03:19:07;;;;;;;4.88;2.55;;;6.60;93.60;;;;;;4999577;28;20034;-78
2022/02/14 03:21:33;;;;;;;3.40;2.95;;;6.70;93.50;;;;;;4995751;28;20120;-76
2022/02/14 03:23:59;;;;;;;4.13;2.97;;;6.60;93.60;;;;;;4997105;28;20035;-78
2022/02/14 03:26:25;;;;;;;5.90;4.43;;;6.50;93.70;;;;;;5000762;28;20014;-76
2022/02/14 03:28:52;;;;;;;6.63;3.40;;;6.40;94.10;;;;;;5000348;28;20019;-77
2022/02/14 03:31:18;;;;;;;10.07;3.55;;;6.20;94.20;;;;;;5002356;28;20042;-77
2022/02/14 03:33:44;;;;;;;4.07;2.83;;;6.00;94.90;;;;;;4998553;28;20050;-76
2022/02/14 03:36:11;;;;;;;5.78;3.10;;;5.90;95.30;;;;;;4988353;28;20019;-77
2022/02/14 03:38:37;;;;;;;6.85;3.58;;;5.70;95.60;;;;;;4997773;28;20019;-78
2022/02/14 03:41:02;;;;;;;5.30;3.22;;;5.60;95.70;;;;;;4980631;28;20034;-77
2022/02/14 03:43:28;;;;;;;6.10;2.78;;;5.50;95.90;;;;;;4981532;28;20064;-78
2022/02/14 03:45:54;;;;;;;3.83;2.90;;;5.50;95.20;;;;;;4985849;28;20065;-77
2022/02/14 03:48:23;;;;;;;3.22;2.38;;;5.50;95.50;;;;;;4988792;28;20046;-77
2022/02/14 03:50:49;;;;;;;5.97;2.75;;;5.50;95.40;;;;;;4998387;28;20046;-76
2022/02/14 03:53:14;;;;;;;7.72;2.95;;;5.80;94.80;;;;;;4998153;28;20023;-77
2022/02/14 03:55:40;;;;;;;6.43;2.90;;;5.70;95.00;;;;;;5003787;28;20014;-77
2022/02/14 03:58:07;;;;;;;5.18;2.50;;;5.60;95.70;;;;;;4999865;28;20031;-77
2022/02/14 04:00:33;;;;;;;4.38;2.67;;;5.30;95.80;;;;;;4999812;28;20027;-77
2022/02/14 04:02:58;;;;;;;4.20;2.75;;;5.70;94.80;;;;;;5015290;28;20026;-77
2022/02/14 04:05:24;;;;;;;4.95;2.83;;;5.80;94.60;;;;;;4995489;28;20034;-77
2022/02/14 04:07:49;;;;;;;5.93;2.85;;;5.90;94.20;;;;;;4995846;28;20102;-76
2022/02/14 04:10:16;;;;;;;7.18;3.42;;;5.90;94.10;;;;;;4979412;28;20053;-77
2022/02/14 04:12:42;;;;;;;8.77;3.00;;;5.80;94.10;;;;;;4979979;28;20092;-77
2022/02/14 04:15:11;;;;;;;4.60;2.72;;;5.60;94.70;;;;;;4979924;28;20054;-78
2022/02/14 04:17:36;;;;;;;5.07;3.67;;;5.80;94.20;;;;;;4995564;28;20050;-78
2022/02/14 04:20:03;;;;;;;4.10;2.95;;;6.00;93.80;;;;;;4994050;28;20093;-78
2022/02/14 04:22:29;;;;;;;4.30;3.25;;;6.10;93.70;;;;;;4976527;28;20035;-78
2022/02/14 04:24:55;;;;;;;6.30;3.53;;;6.10;93.70;;;;;;4974871;28;20041;-77
2022/02/14 04:27:20;;;;;;;6.25;2.95;;;5.90;93.70;;;;;;4975441;28;20018;-77
2022/02/14 04:29:46;;;;;;;5.78;3.20;;;5.90;93.80;;;;;;4977801;28;20070;-77
2022/02/14 04:32:11;;;;;;;4.00;3.03;;;5.90;93.60;;;;;;4976476;28;20027;-77
2022/02/14 04:34:37;;;;;;;4.28;3.00;;;5.90;93.60;;;;;;4975287;28;20037;-77
2022/02/14 04:37:03;;;;;;;5.00;3.15;;;5.80;93.80;;;;;;4976967;28;20034;-77
2022/02/14 04:39:29;;;;;;;6.15;2.72;;;5.80;93.90;;;;;;4978462;28;20127;-78
2022/02/14 04:41:54;;;;;;;8.90;3.03;;;5.70;93.80;;;;;;4991947;28;20049;-78
2022/02/14 04:44:20;;;;;;;7.07;4.13;;;5.40;94.40;;;;;;4978883;28;20014;-77
2022/02/14 04:46:47;;;;;;;10.05;2.95;;;5.10;94.90;;;;;;4979550;28;20054;-78
2022/02/14 04:49:14;;;;;;;7.95;3.30;;;4.90;95.80;;;;;;4977203;28;20030;-76
2022/02/14 04:51:40;;;;;;;7.35;3.80;;;4.70;96.20;;;;;;4991132;28;20487;-77
2022/02/14 04:54:05;;;;;;;6.85;3.05;;;4.70;96.30;;;;;;4980038;28;20042;-77
2022/02/14 04:56:31;;;;;;;8.68;2.90;;;4.50;97.30;;;;;;4977166;28;20447;-78
2022/02/14 04:58:57;;;;;;;5.30;3.08;;;4.50;97.40;;;;;;4975507;28;20034;-78
2022/02/14 05:01:24;;;;;;;5.20;2.65;;;4.70;96.70;;;;;;4977242;28;20019;-77
2022/02/14 05:03:50;;;;;;;4.07;2.60;;;4.80;96.30;;;;;;4979450;28;20120;-78
2022/02/14 05:06:16;;;;;;;4.03;2.78;;;4.80;96.10;;;;;;4976259;28;20041;-78
2022/02/14 05:08:41;;;;;;;4.25;2.90;;;4.70;96.60;;;;;;4977687;28;20023;-78
2022/02/14 05:11:07;;;;;;;5.10;2.97;;;4.70;96.70;;;;;;4976957;28;20109;-78
2022/02/14 05:13:33;;;;;;;3.42;3.13;;;4.70;96.70;;;;;;4976632;28;20026;-77
2022/02/14 05:15:59;;;;;;;6.85;3.50;;;4.60;96.90;;;;;;4992411;28;20034;-78
2022/02/14 05:18:25;;;;;;;6.10;3.42;;;4.60;97.00;;;;;;4977183;28;20049;-78
2022/02/14 05:20:51;;;;;;;6.30;2.60;;;4.60;96.70;;;;;;4976696;28;20022;-77
2022/02/14 05:23:17;;;;;;;5.00;2.67;;;4.60;97.00;;;;;;4975718;28;20026;-78
2022/02/14 05:25:42;;;;;;;4.45;3.15;;;4.50;97.40;;;;;;4976365;28;20379;-78
2022/02/14 05:28:12;;;;;;;3.20;2.60;;;4.40;97.70;;;;;;4978957;28;20034;-77
2022/02/14 05:30:38;;;;;;;6.47;2.75;;;4.70;96.50;;;;;;4990808;28;20078;-78
2022/02/14 05:33:06;;;;;;;3.58;2.67;;;4.90;96.50;;;;;;4976717;28;20039;-77
2022/02/14 05:35:32;;;;;;;5.53;2.78;;;5.00;95.70;;;;;;4992104;28;20035;-77
2022/02/14 05:37:59;;;;;;;5.20;3.13;;;5.00;95.90;;;;;;4974891;28;20038;-77
2022/02/14 05:40:25;;;;;;;4.03;2.55;;;4.90;96.40;;;;;;4990795;28;20026;-78
2022/02/14 05:42:51;;;;;;;7.35;3.35;;;5.10;95.40;;;;;;4990082;28;20025;-78
2022/02/14 05:45:17;;;;;;;4.20;2.72;;;5.30;94.80;;;;;;4965144;28;20031;-78
2022/02/14 05:47:42;;;;;;;5.20;3.05;;;5.20;95.50;;;;;;4972969;28;20030;-77
2022/02/14 05:50:09;;;;;;;6.00;3.40;;;5.20;95.10;;;;;;4974146;28;20022;-78
2022/02/14 05:52:35;;;;;;;6.75;3.33;;;5.20;95.10;;;;;;4974522;28;20031;-78
2022/02/14 05:55:01;;;;;;;5.43;3.45;;;5.30;94.70;;;;;;4989599;28;20031;-77
2022/02/14 05:57:27;;;;;;;4.70;2.65;;;5.50;94.40;;;;;;4990271;28;20049;-77
2022/02/14 05:59:52;;;;;;;5.82;3.70;;;5.40;94.50;;;;;;4990113;28;20085;-77
2022/02/14 06:02:18;;;;;;;13.38;3.40;;;5.40;94.60;;;;;;4975121;28;20029;-77
2022/02/14 06:04:43;;;;;;;7.57;3.78;;;5.10;94.90;;;;;;4991276;28;20124;-78
2022/02/14 06:07:09;;;;;;;8.63;3.75;;;5.10;95.10;;;;;;4974795;28;20482;-77
2022/02/14 06:09:35;;;;;;;7.03;4.10;;;5.00;95.60;;;;;;4974736;28;20023;-77
2022/02/14 06:12:00;;;;;;;5.63;2.60;;;4.90;95.70;;;;;;4989983;28;20440;-77
2022/02/14 06:14:27;;;;;;;6.07;2.75;;;5.00;95.60;;;;;;4974982;28;20027;-78
2022/02/14 06:16:52;;;;;;;10.07;3.33;;;5.30;94.70;;;;;;4971392;28;20029;-77
2022/02/14 06:19:18;;;;;;;11.73;3.85;;;5.40;94.20;;;;;;4975960;28;20398;-78
2022/02/14 06:21:44;;;;;;;3.75;2.28;;;5.30;95.10;;;;;;4990932;28;20042;-78
2022/02/14 06:24:09;;;;;;;9.02;3.47;;;5.30;94.90;;;;;;4973030;28;20034;-77
2022/02/14 06:26:35;;;;;;;9.40;3.35;;;5.40;94.40;;;;;;4990096;28;20018;-77
2022/02/14 06:29:02;;;;;;;7.65;2.60;;;5.40;94.40;;;;;;4976594;28;20114;-76
2022/02/14 06:31:28;;;;;;;7.93;3.17;;;5.40;94.50;;;;;;4974562;28;20042;-80
2022/02/14 06:33:55;;;;;;;7.93;3.05;;;5.30;94.60;;;;;;4972970;28;20045;-77
2022/02/14 06:36:23;;;;;;;10.98;3.45;;;5.20;94.90;;;;;;4971508;28;20050;-78
2022/02/14 06:38:50;;;;;;;5.40;2.90;;;5.20;95.20;;;;;;4990501;28;20031;-77
2022/02/14 06:41:16;;;;;;;5.85;3.70;;;5.40;94.70;;;;;;4975468;28;20043;-78
2022/02/14 06:43:41;;;;;;;7.05;3.00;;;5.50;94.50;;;;;;4975564;28;20494;-77
2022/02/14 06:46:07;;;;;;;10.40;4.60;;;5.40;94.90;;;;;;4992186;28;20375;-77
2022/02/14 06:48:32;;;;;;;10.43;4.10;;;5.10;95.40;;;;;;4982052;28;20074;-77
2022/02/14 06:50:59;;;;;;;9.55;4.30;;;5.30;95.10;;;;;;4995746;28;20043;-76
2022/02/14 06:53:25;;;;;;;11.55;4.00;;;5.50;94.70;;;;;;4994751;28;20121;-77
2022/02/14 06:55:51;;;;;;;6.57;4.40;;;5.40;94.80;;;;;;4978877;28;20027;-78
2022/02/14 06:58:16;;;;;;;16.90;5.07;;;5.40;95.00;;;;;;4993227;28;20023;-76
2022/02/14 07:00:42;;;;;;;8.25;4.13;;;5.40;94.90;;;;;;4978804;28;20443;-77
2022/02/14 07:03:08;;;;;;;9.75;3.65;;;5.50;94.70;;;;;;4979072;28;20023;-77
2022/02/14 07:05:34;;;;;;;10.93;4.15;;;5.60;94.50;;;;;;4977972;28;20089;-77
2022/02/14 07:08:01;;;;;;;13.18;4.28;;;5.40;95.20;;;;;;4981703;28;20026;-77
2022/02/14 07:10:27;;;;;;;20.00;6.93;;;5.20;95.30;;;;;;4980355;28;20027;-78
2022/02/14 07:12:53;;;;;;;10.90;4.00;;;5.20;95.20;;;;;;4977840;28;20050;-77
2022/02/14 07:15:21;;;;;;;10.90;5.20;;;5.40;95.00;;;;;;4978462;28;20402;-77
2022/02/14 07:17:48;;;;;;;10.57;4.30;;;5.50;95.10;;;;;;4992075;28;20119;-77
2022/02/14 07:20:14;;;;;;;11.73;4.65;;;5.70;94.80;;;;;;4978319;28;20038;-77
2022/02/14 07:22:40;;;;;;;14.05;4.82;;;5.70;94.60;;;;;;4977429;28;20018;-77
2022/02/14 07:25:06;;;;;;;15.88;5.13;;;5.60;95.30;;;;;;4994226;28;20042;-77
2022/02/14 07:27:33;;;;;;;14.05;4.22;;;5.70;94.90;;;;;;4978774;28;20019;-76
2022/02/14 07:29:59;;;;;;;10.57;5.05;;;5.70;94.80;;;;;;4976732;28;20042;-77
2022/02/14 07:32:24;;;;;;;10.43;4.85;;;5.70;95.10;;;;;;4991123;28;20034;-77
2022/02/14 07:34:50;;;;;;;14.75;5.28;;;5.70;95.20;;;;;;4977081;28;20482;-77
2022/02/14 07:37:16;;;;;;;15.25;5.82;;;5.60;95.60;;;;;;4990645;28;20064;-78
2022/02/14 07:39:41;;;;;;;14.43;5.70;;;5.60;95.50;;;;;;4976895;28;20023;-77
2022/02/14 07:42:07;;;;;;;10.98;5.10;;;5.50;95.70;;;;;;4975756;28;20399;-78
2022/02/14 07:44:32;;;;;;;12.15;5.38;;;5.60;95.70;;;;;;4977683;28;20022;-77
2022/02/14 07:46:58;;;;;;;11.10;4.55;;;5.80;95.20;;;;;;4977339;28;20027;-77
2022/02/14 07:49:24;;;;;;;9.90;5.47;;;6.10;94.60;;;;;;4985327;28;20027;-75
2022/02/14 07:51:50;;;;;;;8.25;4.85;;;6.30;94.20;;;;;;4985263;28;20033;-78
2022/02/14 07:54:15;;;;;;;10.52;4.30;;;6.40;94.00;;;;;;4980802;28;20027;-77
2022/02/14 07:56:41;;;;;;;9.85;5.50;;;6.40;94.00;;;;;;4975922;28;20510;-77
2022/02/14 07:59:07;;;;;;;9.75;4.72;;;6.50;93.90;;;;;;4977082;28;20035;-77
2022/02/14 08:01:34;;;;;;;18.10;7.22;;;6.50;94.80;;;;;;4992286;28;20506;-77
2022/02/14 08:03:59;;;;;;;7.47;4.25;;;6.70;94.10;;;;;;4977640;28;20023;-78
2022/02/14 08:06:25;;;;;;;13.32;4.35;;;6.80;93.70;;;;;;4990404;28;20077;-78
2022/02/14 08:08:51;;;;;;;8.27;3.55;;;6.90;93.30;;;;;;4970486;28;20023;-76
2022/02/14 08:11:18;;;;;;;9.38;3.20;;;7.10;92.80;;;;;;4969846;28;20038;-74
2022/02/14 08:13:43;;;;;;;6.28;3.55;;;7.20;92.60;;;;;;4974965;28;20027;-76
2022/02/14 08:16:09;;;;;;;5.35;3.75;;;7.30;92.10;;;;;;4991147;28;20070;-75
2022/02/14 08:18:36;;;;;;;11.70;4.80;;;7.40;92.00;;;;;;4970295;28;20046;-76
2022/02/14 08:21:02;;;;;;;10.43;5.32;;;7.50;92.20;;;;;;4989836;28;20517;-75
2022/02/14 08:23:27;;;;;;;14.55;5.60;;;7.40;92.20;;;;;;4982089;28;20027;-77
2022/02/14 08:25:53;;;;;;;10.43;5.78;;;7.50;92.00;;;;;;4974718;28;20023;-75
2022/02/14 08:28:18;;;;;;;10.13;5.03;;;7.60;92.00;;;;;;4975294;28;20510;-77
2022/02/14 08:30:44;;;;;;;10.48;4.97;;;7.80;91.80;;;;;;4974961;28;20037;-77
2022/02/14 08:33:11;;;;;;;15.93;5.97;;;7.90;91.50;;;;;;4975043;28;20154;-75
2022/02/14 08:35:38;;;;;;;8.68;5.70;;;7.80;91.80;;;;;;4973630;28;20037;-76
2022/02/14 08:38:04;;;;;;;12.52;5.43;;;7.80;91.60;;;;;;4973264;28;20049;-76
2022/02/14 08:40:30;;;;;;;10.70;4.75;;;8.00;91.50;;;;;;4971194;28;20481;-77
2022/02/14 08:42:58;;;;;;;13.85;4.60;;;8.30;91.00;;;;;;4973763;28;20419;-74
2022/02/14 08:45:24;;;;;;;12.18;4.53;;;8.40;90.50;;;;;;4972875;28;20035;-76
2022/02/14 08:47:50;;;;;;;8.07;3.75;;;8.50;90.30;;;;;;4974780;28;20026;-75
2022/02/14 08:50:16;;;;;;;10.98;4.63;;;8.50;90.30;;;;;;4975076;28;20027;-75
2022/02/14 08:52:41;;;;;;;8.30;3.88;;;8.80;89.90;;;;;;4975122;28;20038;-76
2022/02/14 08:55:10;;;;;;;13.05;3.63;;;8.80;89.50;;;;;;4975065;28;20031;-75
2022/02/14 08:57:36;;;;;;;9.18;4.00;;;8.70;89.10;;;;;;4968001;28;20029;-76
2022/02/14 09:00:04;;;;;;;15.27;5.65;;;8.90;88.60;;;;;;4975846;28;20047;-76
2022/02/14 09:02:30;;;;;;;9.82;4.57;;;8.90;89.60;;;;;;4989679;28;20023;-76
2022/02/14 09:04:56;;;;;;;9.52;5.47;;;9.00;89.40;;;;;;4975653;28;20080;-79
2022/02/14 09:07:21;;;;;;;12.00;5.18;;;9.20;88.80;;;;;;4979551;28;20143;-77
2022/02/14 09:09:47;;;;;;;11.18;3.55;;;9.50;87.60;;;;;;4978817;28;20041;-79
2022/02/14 09:12:12;;;;;;;10.30;4.95;;;9.60;86.20;;;;;;4975515;28;20486;-76
2022/02/14 09:14:38;;;;;;;8.52;4.32;;;9.80;86.90;;;;;;4976105;28;20030;-76
2022/02/14 09:17:03;;;;;;;11.15;4.30;;;10.00;86.10;;;;;;4972475;28;20026;-76
2022/02/14 09:19:29;;;;;;;12.27;4.10;;;10.60;84.50;;;;;;4975639;28;20038;-76
2022/02/14 09:21:55;;;;;;;7.53;4.55;;;11.10;82.20;;;;;;4978325;28;20050;-76
2022/02/14 09:24:20;;;;;;;7.30;4.13;;;11.20;81.20;;;;;;4976972;28;20018;-76
2022/02/14 09:26:46;;;;;;;12.02;4.50;;;11.20;80.90;;;;;;4995314;28;20467;-75
2022/02/14 09:29:14;;;;;;;7.88;3.75;;;11.10;81.10;;;;;;4977219;28;20050;-75
2022/02/14 09:31:40;;;;;;;7.13;3.10;;;11.00;81.10;;;;;;4968295;28;20023;-75
2022/02/14 09:34:06;;;;;;;7.88;3.35;;;10.90;80.30;;;;;;4969454;28;20042;-76
2022/02/14 09:36:33;;;;;;;7.03;3.58;;;10.80;80.80;;;;;;4978644;28;20081;-76
2022/02/14 09:39:00;;;;;;;10.18;3.53;;;11.00;81.00;;;;;;4977014;28;20023;-75
2022/02/14 09:41:26;;;;;;;7.65;3.17;;;11.50;79.60;;;;;;4983924;28;20031;-75
2022/02/14 09:43:52;;;;;;;11.45;4.10;;;11.60;79.30;;;;;;4975519;28;20031;-76
2022/02/14 09:46:17;;;;;;;12.40;3.30;;;11.60;79.30;;;;;;4974132;28;20027;-76
2022/02/14 09:48:44;;;;;;;10.35;3.22;;;11.90;78.80;;;;;;4981772;28;20023;-75
2022/02/14 09:51:13;;;;;;;4.90;2.33;;;11.80;79.10;;;;;;4974942;28;20072;-76
2022/02/14 09:53:40;;;;;;;10.07;2.33;;;11.50;80.80;;;;;;4970246;28;20031;-74
2022/02/14 09:56:07;;;;;;;7.15;2.72;;;11.40;81.00;;;;;;4969618;28;20463;-75
2022/02/14 09:58:33;;;;;;;6.00;2.25;;;11.70;79.70;;;;;;4973353;28;20037;-75
2022/02/14 10:00:59;;;;;;;5.18;2.40;;;11.40;81.50;;;;;;4972643;28;20244;-76
2022/02/14 10:03:25;;;;;;;9.35;2.75;;;11.50;81.90;;;;;;4983555;28;20027;-73
2022/02/14 10:05:56;;;;;;;3.67;1.92;;;11.50;82.50;;;;;;4976074;28;20077;-72
2022/02/14 10:08:22;;;;;;;;;;;11.50;83.00;;;;;;4989455;28;20037;-76
2022/02/14 10:10:49;;;;;;;6.38;2.67;;;11.60;82.70;;;;;;4975279;28;19910;-75
2022/02/14 10:13:51;;;;;;;5.05;2.10;;;11.50;83.50;;;;;;4965140;28;20069;-77
2022/02/14 10:16:18;;;;;;;4.93;2.40;;;11.50;83.70;;;;;;4968938;28;20117;-74
2022/02/14 10:18:43;;;;;;;3.58;1.95;;;11.50;83.80;;;;;;4971333;28;20061;-73
2022/02/14 10:21:22;;;;;;;8.60;2.75;;;11.60;85.00;;;;;;4973507;28;20063;-74
2022/02/14 10:23:59;;;;;;;4.82;2.08;;;11.60;84.60;;;;;;4967312;28;20023;-74
2022/02/14 10:26:46;;;;;;;6.25;2.53;;;11.70;84.30;;;;;;4965245;28;20049;-73
2022/02/14 10:29:25;;;;;;;8.95;2.63;;;12.00;84.10;;;;;;4971861;28;20031;-75
2022/02/14 10:31:53;;;;;;;11.52;2.78;;;12.10;84.30;;;;;;4972703;28;20030;-73
2022/02/14 10:34:21;;;;;;;6.30;2.25;;;12.30;83.80;;;;;;4973867;28;20031;-74
2022/02/14 10:36:49;;;;;;;9.32;1.85;;;12.20;84.80;;;;;;4976397;28;20018;-74
2022/02/14 10:39:15;;;;;;;4.65;2.20;;;12.30;85.30;;;;;;4974976;28;20027;-73
2022/02/14 10:41:43;;;;;;;5.90;2.00;;;12.30;86.50;;;;;;4972257;28;20026;-74
2022/02/14 10:47:19;;;;;;;6.15;2.22;;;12.30;87.70;;;;;;4977025;28;20034;-73
2022/02/14 10:49:55;;;;;;;;;;;12.30;87.80;;;;;;4977981;28;20031;-74
2022/02/14 10:52:21;;;;;;;7.60;1.98;;;12.40;88.30;;;;;;4977309;28;19912;-75
2022/02/14 10:54:46;;;;;;;9.43;2.13;;;12.60;87.70;;;;;;4977215;28;20030;-75
2022/02/14 10:57:30;;;;;;;4.32;2.00;;;12.50;88.10;;;;;;4974823;28;20356;-74
2022/02/14 11:00:12;;;;;;;6.43;1.70;;;12.60;89.20;;;;;;4976919;28;20027;-75
2022/02/14 11:02:43;;;;;;;4.18;1.63;;;12.70;89.40;;;;;;4976021;28;20097;-75
2022/02/14 11:05:10;;;;;;;4.93;2.05;;;12.90;89.40;;;;;;4976708;28;20109;-75
2022/02/14 11:07:36;;;;;;;3.95;1.63;;;13.10;89.20;;;;;;4976672;28;20035;-75
2022/02/14 11:10:04;;;;;;;7.05;2.00;;;13.20;89.70;;;;;;4976072;28;20038;-74
2022/02/14 11:12:36;;;;;;;6.13;1.70;;;13.10;90.40;;;;;;4977496;28;20106;-75
2022/02/14 11:15:05;;;;;;;4.18;1.80;;;13.60;90.10;;;;;;4969011;28;20475;-74
2022/02/14 11:17:33;;;;;;;6.22;1.45;;;13.40;90.30;;;;;;4969038;28;20018;-74
2022/02/14 11:20:06;;;;;;;7.00;2.60;;;13.30;90.90;;;;;;4977824;28;20055;-76
2022/02/14 11:22:41;;;;;;;4.72;1.83;;;13.60;90.40;;;;;;4989202;28;20015;-75
2022/02/14 11:25:26;;;;;;;2.83;1.70;;;13.70;90.10;;;;;;4971003;28;20113;-74
2022/02/14 11:28:06;;;;;;;4.18;1.45;;;13.80;89.90;;;;;;4992003;28;20372;-74
2022/02/14 11:30:32;;;;;;;5.10;1.95;;;13.60;90.80;;;;;;4972179;28;20475;-74
2022/02/14 11:33:09;;;;;;;8.95;1.52;;;13.60;91.10;;;;;;4991519;28;20043;-74
2022/02/14 11:35:39;;;;;;;5.25;1.70;;;13.50;91.00;;;;;;4972802;28;20015;-74
2022/02/14 11:38:06;;;;;;;4.45;2.03;;;13.60;91.30;;;;;;4968899;28;20026;-74
2022/02/14 11:40:46;;;;;;;3.60;1.10;;;13.60;91.90;;;;;;4978311;28;20015;-76
2022/02/14 11:43:19;;;;;;;5.50;1.13;;;13.50;92.40;;;;;;4970058;28;20031;-76
2022/02/14 11:46:07;;;;;;;5.18;1.98;;;13.50;92.60;;;;;;4982682;28;20050;-73
2022/02/14 11:48:34;;;;;;;2.20;1.20;;;13.50;92.70;;;;;;4974790;28;20030;-79
2022/02/14 11:51:14;;;;;;;3.40;1.67;;;13.60;92.60;;;;;;4979148;28;20041;-77
2022/02/14 11:53:45;;;;;;;2.15;1.65;;;13.60;92.60;;;;;;4976904;28;20026;-77
2022/02/14 11:56:22;;;;;;;;;;;13.40;92.70;;;;;;4982211;28;20052;-78
2022/02/14 11:59:07;;;;;;;2.88;1.35;;;13.40;92.80;;;;;;4979125;28;19910;-78
2022/02/14 12:01:36;;;;;;;5.68;1.23;;;13.30;93.40;;;;;;4972266;28;20110;-77
2022/02/14 12:04:29;;;;;;;4.05;1.55;;;13.60;93.30;;;;;;4995137;28;20037;-78
2022/02/14 12:07:16;;;;;;;3.42;1.20;;;13.50;93.20;;;;;;4978560;28;20419;-77
2022/02/14 12:10:00;;;;;;;6.03;1.48;;;13.70;93.00;;;;;;4978177;28;20027;-77
2022/02/14 12:12:46;;;;;;;3.65;1.17;;;13.50;93.20;;;;;;4981120;28;20015;-79
2022/02/14 12:20:38;;;;;;;4.57;1.17;;;13.30;93.60;;;;;;4971447;28;20101;-78
2022/02/14 12:23:05;;;;;;;4.25;1.20;;;13.30;93.80;;;;;;4977499;28;20046;-77
2022/02/14 12:25:31;;;;;;;4.50;1.30;;;13.20;93.90;;;;;;4996174;28;20018;-81
2022/02/14 12:28:05;;;;;;;5.95;1.58;;;13.20;94.00;;;;;;4977626;28;20502;-77
2022/02/14 12:30:31;;;;;;;3.38;1.10;;;13.10;94.10;;;;;;4979182;28;20039;-79
2022/02/14 12:32:59;;;;;;;6.13;1.75;;;13.20;94.40;;;;;;4994224;28;20039;-77
2022/02/14 12:35:37;;;;;;;2.10;1.00;;;13.30;94.50;;;;;;4979453;28;20041;-78
2022/02/14 12:38:03;;;;;;;2.25;0.95;;;13.30;94.70;;;;;;4979785;28;20109;-78
2022/02/14 12:40:54;;;;;;;1.90;1.17;;;13.30;94.80;;;;;;4995348;28;20071;-80
2022/02/14 12:43:32;;;;;;;4.35;1.17;;;13.30;95.00;;;;;;4976350;28;20038;-78
2022/02/14 12:46:00;;;;;;;1.92;1.15;;;13.30;95.10;;;;;;4977545;28;20061;-80
2022/02/14 12:48:41;;;;;;;9.10;2.60;;;13.30;95.30;;;;;;4974952;28;20093;-77
2022/02/14 12:51:20;;;;;;;4.32;1.75;;;13.20;95.70;;;;;;4976009;28;20031;-78
2022/02/14 12:53:54;;;;;;;2.65;1.75;;;13.10;95.80;;;;;;4976023;28;20038;-78
2022/02/14 12:56:25;;;;;;;4.30;1.10;;;13.20;95.70;;;;;;4991113;28;20031;-77
2022/02/14 12:58:55;;;;;;;1.90;1.13;;;13.30;95.90;;;;;;4975881;28;20018;-78
2022/02/14 13:01:23;;;;;;;2.35;1.40;;;13.30;95.90;;;;;;4976616;28;20015;-79
2022/02/14 13:04:00;;;;;;;2.80;1.13;;;13.20;96.00;;;;;;4972647;28;20081;-78
2022/02/14 13:06:35;;;;;;;3.33;1.15;;;13.30;96.00;;;;;;4977375;28;20105;-79